createdAt,value
2023-01-13T00:01:09.264Z,0.90
2023-01-13T00:03:37.253Z,1.15
2023-01-13T00:06:05.548Z,0.55
2023-01-13T00:08:33.501Z,1.55
2023-01-13T00:11:00.703Z,0.10
2023-01-13T00:13:28.005Z,0.28
2023-01-13T00:16:04.247Z,0.35
2023-01-13T00:18:31.998Z,0.50
2023-01-13T00:21:06.752Z,0.17
2023-01-13T00:23:35.306Z,0.17
2023-01-13T00:26:06.171Z,0.32
2023-01-13T00:28:33.716Z,0.38
2023-01-13T00:31:09.708Z,0.30
2023-01-13T00:33:37.499Z,0.75
2023-01-13T00:36:07.639Z,0.50
2023-01-13T00:38:36.375Z,0.28
2023-01-13T00:41:06.893Z,2.42
2023-01-13T00:43:36.059Z,0.13
2023-01-13T00:46:05.096Z,1.80
2023-01-13T00:48:32.907Z,0.20
2023-01-13T00:51:05.923Z,0.75
2023-01-13T00:53:43.124Z,0.57
2023-01-13T00:56:34.128Z,0.15
2023-01-13T00:59:05.663Z,0.30
2023-01-13T01:01:33.217Z,0.50
2023-01-13T01:04:00.512Z,0.30
2023-01-13T01:06:28.272Z,1.55
2023-01-13T01:08:56.285Z,0.30
2023-01-13T01:11:29.642Z,0.45
2023-01-13T01:13:59.065Z,0.45
2023-01-13T01:16:28.631Z,1.38
2023-01-13T01:18:56.786Z,1.35
2023-01-13T01:21:25.807Z,4.03
2023-01-13T01:23:53.341Z,0.35
2023-01-13T01:26:23.769Z,1.77
2023-01-13T01:28:51.650Z,0.63
2023-01-13T01:31:24.683Z,0.85
2023-01-13T01:33:53.037Z,5.63
2023-01-13T01:36:21.926Z,1.13
2023-01-13T01:38:49.918Z,2.75
2023-01-13T01:41:24.434Z,1.75
2023-01-13T01:44:28.516Z,4.53
2023-01-13T01:46:57.487Z,0.65
2023-01-13T01:49:30.487Z,1.35
2023-01-13T01:52:06.045Z,2.22
2023-01-13T01:55:04.827Z,0.82
2023-01-13T01:58:00.903Z,1.73
2023-01-13T02:00:30.603Z,4.60
2023-01-13T02:02:59.875Z,1.48
2023-01-13T02:05:27.210Z,3.90
2023-01-13T02:07:57.651Z,2.40
2023-01-13T02:10:27.803Z,0.73
2023-01-13T02:13:05.089Z,0.20
2023-01-13T02:15:48.265Z,1.38
2023-01-13T02:18:38.821Z,2.97
2023-01-13T02:21:43.542Z,2.17
2023-01-13T02:24:29.277Z,3.25
2023-01-13T02:27:10.358Z,2.80
2023-01-13T02:30:20.711Z,2.53
2023-01-13T02:33:08.168Z,0.75
2023-01-13T02:35:53.387Z,2.78
2023-01-13T02:38:28.657Z,1.17
2023-01-13T02:41:34.071Z,2.38
2023-01-13T02:44:06.961Z,1.67
2023-01-13T02:46:49.365Z,0.85
2023-01-13T02:49:28.291Z,2.17
2023-01-13T02:52:02.587Z,5.10
2023-01-13T02:54:33.326Z,0.60
2023-01-13T02:57:02.543Z,2.10
2023-01-13T02:59:31.265Z,3.13
2023-01-13T03:01:59.722Z,0.90
2023-01-13T03:04:50.317Z,5.75
2023-01-13T03:07:38.341Z,4.85
2023-01-13T03:10:33.179Z,2.65
2023-01-13T03:13:15.848Z,2.30
2023-01-13T03:15:54.917Z,3.40
2023-01-13T03:18:42.517Z,4.20
2023-01-13T03:21:34.244Z,3.50
2023-01-13T03:24:11.895Z,2.13
2023-01-13T03:27:04.817Z,3.58
2023-01-13T03:29:58.768Z,1.92
2023-01-13T03:32:34.767Z,4.63
2023-01-13T03:35:14.071Z,3.97
2023-01-13T03:37:47.479Z,6.65
2023-01-13T03:40:18.699Z,4.80
2023-01-13T03:43:12.023Z,3.15
2023-01-13T03:45:41.499Z,4.80
2023-01-13T03:48:18.101Z,7.28
2023-01-13T03:50:50.195Z,4.80
2023-01-13T03:53:42.963Z,4.82
2023-01-13T03:56:22.412Z,9.43
2023-01-13T03:58:52.790Z,4.75
2023-01-13T04:01:53.174Z,11.35
2023-01-13T04:04:26.545Z,8.18
2023-01-13T04:07:21.878Z,6.22
2023-01-13T04:09:59.240Z,6.50
2023-01-13T04:12:51.011Z,9.05
2023-01-13T04:15:22.329Z,4.95
2023-01-13T04:17:50.939Z,5.97
2023-01-13T04:20:18.392Z,13.48
2023-01-13T04:22:45.587Z,6.30
2023-01-13T04:25:12.827Z,7.15
2023-01-13T04:27:40.038Z,5.30
2023-01-13T04:30:08.072Z,7.05
2023-01-13T04:32:35.316Z,8.93
2023-01-13T04:35:03.881Z,6.78
2023-01-13T04:37:31.118Z,13.40
2023-01-13T04:39:58.542Z,6.38
2023-01-13T04:42:26.491Z,8.00
2023-01-13T04:44:53.819Z,11.85
2023-01-13T04:47:21.157Z,11.48
2023-01-13T04:49:48.443Z,5.60
2023-01-13T04:52:15.695Z,12.02
2023-01-13T04:54:43.032Z,6.70
2023-01-13T04:57:10.245Z,11.95
2023-01-13T04:59:37.499Z,9.15
2023-01-13T05:02:04.891Z,9.20
2023-01-13T05:04:32.204Z,12.07
2023-01-13T05:06:59.489Z,9.10
2023-01-13T05:09:26.932Z,9.70
2023-01-13T05:12:12.650Z,14.55
2023-01-13T05:14:58.264Z,8.40
2023-01-13T05:17:26.075Z,14.93
2023-01-13T05:19:53.422Z,10.30
2023-01-13T05:22:39.221Z,16.27
2023-01-13T05:25:25.164Z,9.82
2023-01-13T05:27:57.386Z,9.45
2023-01-13T05:30:30.775Z,9.32
2023-01-13T05:32:58.414Z,11.55
2023-01-13T05:35:25.966Z,13.25
2023-01-13T05:37:54.791Z,9.65
2023-01-13T05:40:41.428Z,9.13
2023-01-13T05:43:20.870Z,8.90
2023-01-13T05:45:49.591Z,4.22
2023-01-13T05:48:18.335Z,7.90
2023-01-13T05:50:47.315Z,7.35
2023-01-13T05:53:14.643Z,4.55
2023-01-13T05:55:42.695Z,5.93
2023-01-13T05:58:15.169Z,8.10
2023-01-13T06:00:42.832Z,7.75
2023-01-13T06:03:11.276Z,5.32
2023-01-13T06:05:38.889Z,6.90
2023-01-13T06:08:07.529Z,5.85
2023-01-13T06:10:36.189Z,3.53
2023-01-13T06:13:04.877Z,5.05
2023-01-13T06:15:32.647Z,5.88
2023-01-13T06:18:02.797Z,5.22
2023-01-13T06:20:30.119Z,5.53
2023-01-13T06:22:58.900Z,11.00
2023-01-13T06:26:00.289Z,4.28
2023-01-13T06:28:27.619Z,2.72
2023-01-13T06:31:00.861Z,5.95
2023-01-13T06:33:36.936Z,10.45
2023-01-13T06:36:08.278Z,7.55
2023-01-13T06:38:38.941Z,6.97
2023-01-13T06:41:08.157Z,4.65
2023-01-13T06:43:35.782Z,7.57
2023-01-13T06:46:03.705Z,4.07
2023-01-13T06:48:35.000Z,5.00
2023-01-13T06:51:03.835Z,8.38
2023-01-13T06:53:31.799Z,5.05
2023-01-13T06:55:59.086Z,3.28
2023-01-13T06:58:26.385Z,6.10
2023-01-13T07:00:53.988Z,5.57
2023-01-13T07:03:22.276Z,7.85
2023-01-13T07:05:54.533Z,7.78
2023-01-13T07:08:23.561Z,1.92
2023-01-13T07:10:51.386Z,8.30
2023-01-13T07:13:37.163Z,4.32
2023-01-13T07:16:06.402Z,4.28
2023-01-13T07:18:34.656Z,8.23
2023-01-13T07:21:07.030Z,5.85
2023-01-13T07:23:39.931Z,4.30
2023-01-13T07:26:09.368Z,3.50
2023-01-13T07:28:37.671Z,10.85
2023-01-13T07:31:06.070Z,4.82
2023-01-13T07:33:33.507Z,3.55
2023-01-13T07:36:03.450Z,5.65
2023-01-13T07:38:31.889Z,5.03
2023-01-13T07:41:18.515Z,6.80
2023-01-13T07:43:45.904Z,2.88
2023-01-13T07:46:13.422Z,3.00
2023-01-13T07:48:40.765Z,3.78
2023-01-13T07:51:10.552Z,3.30
2023-01-13T07:53:40.257Z,1.38
2023-01-13T07:56:09.344Z,1.70
2023-01-13T07:58:37.148Z,3.28
2023-01-13T08:01:14.256Z,3.58
2023-01-13T08:03:41.927Z,4.53
2023-01-13T08:06:10.659Z,5.53
2023-01-13T08:08:39.137Z,4.47
2023-01-13T08:11:08.214Z,4.47
2023-01-13T08:13:36.185Z,9.07
2023-01-13T08:16:10.738Z,8.82
2023-01-13T08:18:38.713Z,9.43
2023-01-13T08:21:09.048Z,3.30
2023-01-13T08:23:36.848Z,3.80
2023-01-13T08:26:07.037Z,5.80
2023-01-13T08:28:34.382Z,4.53
2023-01-13T08:31:03.682Z,3.45
2023-01-13T08:33:31.900Z,4.75
2023-01-13T08:36:02.232Z,5.65
2023-01-13T08:38:29.477Z,7.22
2023-01-13T08:40:56.928Z,5.05
2023-01-13T08:43:24.430Z,6.93
2023-01-13T08:45:57.709Z,6.05
2023-01-13T08:48:25.514Z,6.97
2023-01-13T08:50:53.367Z,9.15
2023-01-13T08:53:20.853Z,3.40
2023-01-13T08:55:48.319Z,12.63
2023-01-13T08:58:16.361Z,7.90
2023-01-13T09:00:44.084Z,6.57
2023-01-13T09:03:11.595Z,7.10
2023-01-13T09:05:39.020Z,8.77
2023-01-13T09:08:06.283Z,8.73
2023-01-13T09:10:33.846Z,7.85
2023-01-13T09:13:13.014Z,16.83
2023-01-13T09:15:42.573Z,14.23
2023-01-13T09:18:10.110Z,10.82
2023-01-13T09:20:37.897Z,7.00
2023-01-13T09:23:09.698Z,8.77
2023-01-13T09:25:37.523Z,6.32
2023-01-13T09:28:05.224Z,7.35
2023-01-13T09:30:32.586Z,5.30
2023-01-13T09:33:18.865Z,5.25
2023-01-13T09:35:46.202Z,11.15
2023-01-13T09:38:13.843Z,6.97
2023-01-13T09:40:43.722Z,12.32
2023-01-13T09:43:46.367Z,10.30
2023-01-13T09:46:44.019Z,8.02
2023-01-13T09:49:24.884Z,11.82
2023-01-13T09:52:02.867Z,8.30
2023-01-13T09:54:43.846Z,9.60
2023-01-13T09:57:13.327Z,8.50
2023-01-13T09:59:41.078Z,11.45
2023-01-13T10:02:30.684Z,8.07
2023-01-13T10:05:17.309Z,8.60
2023-01-13T10:07:56.698Z,20.65
2023-01-13T10:10:42.202Z,13.82
2023-01-13T10:13:20.399Z,9.60
2023-01-13T10:16:21.732Z,12.27
2023-01-13T10:19:15.296Z,8.48
2023-01-13T10:21:57.627Z,9.18
2023-01-13T10:24:58.458Z,7.75
2023-01-13T10:27:31.707Z,14.23
2023-01-13T10:29:59.173Z,10.30
2023-01-13T10:32:26.457Z,15.35
2023-01-13T10:34:57.291Z,10.50
2023-01-13T10:37:27.267Z,13.52
2023-01-13T10:39:56.783Z,15.25
2023-01-13T10:42:24.630Z,6.05
2023-01-13T10:44:55.872Z,11.02
2023-01-13T10:47:43.448Z,10.48
2023-01-13T10:50:17.181Z,12.57
2023-01-13T10:53:02.749Z,13.43
2023-01-13T10:55:33.367Z,12.85
2023-01-13T10:58:20.267Z,10.70
2023-01-13T11:00:51.638Z,9.45
2023-01-13T11:03:22.424Z,8.85
2023-01-13T11:05:59.205Z,7.15
2023-01-13T11:08:42.087Z,11.32
2023-01-13T11:11:40.397Z,8.85
2023-01-13T11:14:41.585Z,10.88
2023-01-13T11:17:40.818Z,8.60
2023-01-13T11:20:11.381Z,13.85
2023-01-13T11:22:47.227Z,9.45
2023-01-13T11:25:42.847Z,9.23
2023-01-13T11:28:33.783Z,14.80
2023-01-13T11:31:26.681Z,10.30
2023-01-13T11:34:16.682Z,9.60
2023-01-13T11:36:48.630Z,6.78
2023-01-13T11:39:33.514Z,12.70
2023-01-13T11:42:24.029Z,14.02
2023-01-13T11:45:07.261Z,18.13
2023-01-13T11:47:36.518Z,12.05
2023-01-13T11:50:13.823Z,15.18
2023-01-13T11:53:25.569Z,8.65
2023-01-13T11:56:08.570Z,12.88
2023-01-13T11:59:07.089Z,9.45
2023-01-13T12:01:47.165Z,8.45
2023-01-13T12:04:43.724Z,9.15
2023-01-13T12:07:32.532Z,11.38
2023-01-13T12:10:18.171Z,9.13
2023-01-13T12:12:52.054Z,9.63
2023-01-13T12:15:32.204Z,8.77
2023-01-13T12:18:13.347Z,7.50
2023-01-13T12:20:43.962Z,11.05
2023-01-13T12:23:24.150Z,7.18
2023-01-13T12:25:58.654Z,5.50
2023-01-13T12:28:40.855Z,6.70
2023-01-13T12:31:09.623Z,13.27
2023-01-13T12:33:58.853Z,8.00
2023-01-13T12:37:07.242Z,10.15
2023-01-13T12:39:37.719Z,11.07
2023-01-13T12:42:37.999Z,5.00
2023-01-13T12:45:11.193Z,5.38
2023-01-13T12:47:46.618Z,6.50
2023-01-13T12:50:25.947Z,9.80
2023-01-13T12:53:20.252Z,6.00
2023-01-13T12:55:53.846Z,8.38
2023-01-13T12:58:29.149Z,7.57
2023-01-13T13:01:13.477Z,6.18
2023-01-13T13:03:44.168Z,8.50
2023-01-13T13:06:20.525Z,7.30
2023-01-13T13:08:57.530Z,5.00
2023-01-13T13:12:03.699Z,9.63
2023-01-13T13:14:40.379Z,14.52
2023-01-13T13:17:20.272Z,7.60
2023-01-13T13:19:49.938Z,11.75
2023-01-13T13:22:37.151Z,5.93
2023-01-13T13:25:04.479Z,7.57
2023-01-13T13:27:31.929Z,9.27
2023-01-13T13:30:02.127Z,13.05
2023-01-13T13:32:59.891Z,6.38
2023-01-13T13:36:00.178Z,7.88
2023-01-13T13:39:21.178Z,6.13
2023-01-13T13:42:11.458Z,4.18
2023-01-13T13:45:08.093Z,10.32
2023-01-13T13:47:39.881Z,5.72
2023-01-13T13:50:13.756Z,4.57
2023-01-13T13:52:56.438Z,5.78
2023-01-13T13:55:28.968Z,6.85
2023-01-13T13:57:59.164Z,8.48
2023-01-13T14:00:33.284Z,4.60
2023-01-13T14:03:05.855Z,5.75
2023-01-13T14:05:35.436Z,7.57
2023-01-13T14:08:07.578Z,9.25
2023-01-13T14:10:37.860Z,6.68
2023-01-13T14:13:26.594Z,7.95
2023-01-13T14:15:59.382Z,7.38
2023-01-13T14:18:27.998Z,11.07
2023-01-13T14:21:16.674Z,6.13
2023-01-13T14:23:55.343Z,9.30
2023-01-13T14:26:31.090Z,9.73
2023-01-13T14:29:01.775Z,11.60
2023-01-13T14:31:30.527Z,10.63
2023-01-13T14:34:00.869Z,7.38
2023-01-13T14:36:36.458Z,9.70
2023-01-13T14:39:03.665Z,6.68
2023-01-13T14:41:38.892Z,10.05
2023-01-13T14:44:18.383Z,7.32
2023-01-13T14:46:46.213Z,9.75
2023-01-13T14:49:36.063Z,3.95
2023-01-13T14:52:13.429Z,9.57
2023-01-13T14:54:49.878Z,6.75
2023-01-13T14:57:24.200Z,9.82
2023-01-13T15:00:16.032Z,10.57
2023-01-13T15:02:58.669Z,6.97
2023-01-13T15:05:25.884Z,8.07
2023-01-13T15:08:19.182Z,8.50
2023-01-13T15:10:59.989Z,10.57
2023-01-13T15:13:32.139Z,12.55
2023-01-13T15:16:02.969Z,11.52
2023-01-13T15:18:30.418Z,12.43
2023-01-13T15:20:57.732Z,12.68
2023-01-13T15:23:24.993Z,11.57
2023-01-13T15:25:52.208Z,9.75
2023-01-13T15:28:25.841Z,11.25
2023-01-13T15:30:55.348Z,10.40
2023-01-13T15:33:23.008Z,6.70
2023-01-13T15:35:52.451Z,7.75
2023-01-13T15:38:22.294Z,12.40
2023-01-13T15:40:51.558Z,16.05
2023-01-13T15:43:40.490Z,7.90
2023-01-13T15:46:51.217Z,7.35
2023-01-13T15:49:27.823Z,6.93
2023-01-13T15:51:55.124Z,12.13
2023-01-13T15:54:24.534Z,7.32
2023-01-13T15:56:52.436Z,9.70
2023-01-13T15:59:23.383Z,8.18
2023-01-13T16:01:50.633Z,11.32
2023-01-13T16:04:18.004Z,13.25
2023-01-13T16:06:45.337Z,14.55
2023-01-13T16:09:14.271Z,15.65
2023-01-13T16:11:41.468Z,18.17
2023-01-13T16:14:08.659Z,18.77
2023-01-13T16:16:36.735Z,12.57
2023-01-13T16:19:04.023Z,9.57
2023-01-13T16:21:31.290Z,10.18
2023-01-13T16:23:58.658Z,13.02
2023-01-13T16:26:29.203Z,13.68
2023-01-13T16:28:57.900Z,11.25
2023-01-13T16:31:32.019Z,15.63
2023-01-13T16:34:01.478Z,10.20
2023-01-13T16:36:34.899Z,13.20
2023-01-13T16:39:02.305Z,8.85
2023-01-13T16:41:29.684Z,11.98
2023-01-13T16:43:56.987Z,9.07
2023-01-13T16:46:26.490Z,15.10
2023-01-13T16:48:56.836Z,23.83
2023-01-13T16:51:24.702Z,25.95
2023-01-13T16:53:52.277Z,16.10
2023-01-13T16:56:28.232Z,16.27
2023-01-13T16:58:58.378Z,11.93
2023-01-13T17:01:28.521Z,12.43
2023-01-13T17:03:56.874Z,13.18
2023-01-13T17:06:38.883Z,16.35
2023-01-13T17:09:10.147Z,13.45
2023-01-13T17:11:37.364Z,15.45
2023-01-13T17:14:19.092Z,17.45
2023-01-13T17:16:47.667Z,11.55
2023-01-13T17:19:15.345Z,8.00
2023-01-13T17:21:42.817Z,7.63
2023-01-13T17:24:12.331Z,10.10
2023-01-13T17:26:47.111Z,8.88
2023-01-13T17:29:15.997Z,16.02
2023-01-13T17:31:43.397Z,11.45
2023-01-13T17:34:12.002Z,12.13
2023-01-13T17:36:39.684Z,8.73
2023-01-13T17:39:07.036Z,12.15
2023-01-13T17:41:34.418Z,9.70
2023-01-13T17:44:01.617Z,13.45
2023-01-13T17:46:28.871Z,10.10
2023-01-13T17:48:56.244Z,17.50
2023-01-13T17:51:25.192Z,13.63
2023-01-13T17:53:53.437Z,10.68
2023-01-13T17:56:20.818Z,14.40
2023-01-13T17:58:48.173Z,14.95
2023-01-13T18:01:19.191Z,13.88
2023-01-13T18:03:46.864Z,15.23
2023-01-13T18:06:20.647Z,15.82
2023-01-13T18:08:48.846Z,16.70
2023-01-13T18:11:20.926Z,13.27
2023-01-13T18:13:50.165Z,13.07
2023-01-13T18:16:18.951Z,18.20
2023-01-13T18:18:48.425Z,13.38
2023-01-13T18:21:39.071Z,16.15
2023-01-13T18:24:28.995Z,14.68
2023-01-13T18:27:14.943Z,18.77
2023-01-13T18:29:42.323Z,18.05
2023-01-13T18:32:09.543Z,11.13
2023-01-13T18:34:37.023Z,14.35
2023-01-13T18:37:05.170Z,10.23
2023-01-13T18:39:32.497Z,10.38
2023-01-13T18:42:18.204Z,20.10
2023-01-13T18:44:45.676Z,11.60
2023-01-13T18:47:12.959Z,14.70
2023-01-13T18:49:40.300Z,9.85
2023-01-13T18:52:07.518Z,13.93
2023-01-13T18:54:35.538Z,13.93
2023-01-13T18:57:03.131Z,18.00
2023-01-13T18:59:31.217Z,11.50
2023-01-13T19:01:58.634Z,10.43
2023-01-13T19:04:25.997Z,9.10
2023-01-13T19:06:53.571Z,11.88
2023-01-13T19:09:24.832Z,15.30
2023-01-13T19:11:52.625Z,7.20
2023-01-13T19:14:37.616Z,8.55
2023-01-13T19:17:09.634Z,10.27
2023-01-13T19:19:42.241Z,11.25
2023-01-13T19:22:11.882Z,10.85
2023-01-13T19:24:42.653Z,14.85
2023-01-13T19:27:11.312Z,11.82
2023-01-13T19:29:38.514Z,11.00
2023-01-13T19:32:22.000Z,17.65
2023-01-13T19:34:51.154Z,16.27
2023-01-13T19:37:19.899Z,9.95
2023-01-13T19:39:47.364Z,14.57
2023-01-13T19:42:33.532Z,19.30
2023-01-13T19:45:19.451Z,10.93
2023-01-13T19:47:46.977Z,8.73
2023-01-13T19:50:14.373Z,15.88
2023-01-13T19:52:44.895Z,12.75
2023-01-13T19:55:12.726Z,9.68
2023-01-13T19:57:40.388Z,10.05
2023-01-13T20:00:09.267Z,12.20
2023-01-13T20:02:49.111Z,11.45
2023-01-13T20:05:21.311Z,11.18
2023-01-13T20:07:50.727Z,11.65
2023-01-13T20:10:19.918Z,13.15
2023-01-13T20:12:47.382Z,19.58
2023-01-13T20:15:14.851Z,13.30
2023-01-13T20:17:42.207Z,10.38
2023-01-13T20:20:10.764Z,15.77
2023-01-13T20:22:39.789Z,15.18
2023-01-13T20:25:08.556Z,13.55
2023-01-13T20:27:36.557Z,20.73
2023-01-13T20:30:06.178Z,9.25
2023-01-13T20:32:33.654Z,19.50
2023-01-13T20:35:00.986Z,9.40
2023-01-13T20:37:28.401Z,12.93
2023-01-13T20:39:58.088Z,14.32
2023-01-13T20:42:32.215Z,14.40
2023-01-13T20:45:00.547Z,15.13
2023-01-13T20:47:28.964Z,16.75
2023-01-13T20:49:56.265Z,29.40
2023-01-13T20:52:23.680Z,13.82
2023-01-13T20:54:51.187Z,11.85
2023-01-13T20:57:18.540Z,20.42
2023-01-13T20:59:45.965Z,16.73
2023-01-13T21:02:15.710Z,12.43
2023-01-13T21:04:43.809Z,17.38
2023-01-13T21:07:11.821Z,10.88
2023-01-13T21:09:39.143Z,14.93
2023-01-13T21:12:25.891Z,13.43
2023-01-13T21:15:11.696Z,16.75
2023-01-13T21:17:57.723Z,18.55
2023-01-13T21:20:25.057Z,11.48
2023-01-13T21:22:52.353Z,15.57
2023-01-13T21:25:19.991Z,14.38
2023-01-13T21:27:47.312Z,14.07
2023-01-13T21:30:17.034Z,18.05
2023-01-13T21:32:45.026Z,17.02
2023-01-13T21:35:13.980Z,17.67
2023-01-13T21:37:43.585Z,14.38
2023-01-13T21:40:13.135Z,16.38
2023-01-13T21:42:59.292Z,22.27
2023-01-13T21:45:45.449Z,15.18
2023-01-13T21:48:12.809Z,15.50
2023-01-13T21:50:40.127Z,13.82
2023-01-13T21:53:07.944Z,19.52
2023-01-13T21:55:36.724Z,13.05
2023-01-13T21:58:14.690Z,14.85
2023-01-13T22:00:44.391Z,17.98
2023-01-13T22:03:15.026Z,18.08
2023-01-13T22:05:42.430Z,14.02
2023-01-13T22:08:12.878Z,17.77
2023-01-13T22:10:57.070Z,14.63
2023-01-13T22:13:43.572Z,12.32
2023-01-13T22:16:10.950Z,13.30
2023-01-13T22:18:38.362Z,14.32
2023-01-13T22:21:05.862Z,12.52
2023-01-13T22:23:33.097Z,26.80
2023-01-13T22:26:02.038Z,16.40
2023-01-13T22:28:34.261Z,20.52
2023-01-13T22:31:01.634Z,17.05
2023-01-13T22:33:29.054Z,20.73
2023-01-13T22:35:56.448Z,20.60
2023-01-13T22:38:24.260Z,20.88
2023-01-13T22:41:03.519Z,13.48
2023-01-13T22:43:31.475Z,16.58
2023-01-13T22:46:03.745Z,18.70
2023-01-13T22:48:31.082Z,13.60
2023-01-13T22:51:15.037Z,18.13
2023-01-13T22:53:42.908Z,18.73
2023-01-13T22:56:19.945Z,16.65
2023-01-13T22:58:48.940Z,22.20
2023-01-13T23:01:17.396Z,17.42
2023-01-13T23:03:47.800Z,18.10
2023-01-13T23:06:16.340Z,16.00
2023-01-13T23:08:44.081Z,14.30
2023-01-13T23:11:13.589Z,13.95
2023-01-13T23:13:43.196Z,15.43
2023-01-13T23:16:20.940Z,14.18
2023-01-13T23:18:48.852Z,15.77
2023-01-13T23:21:19.081Z,16.15
2023-01-13T23:23:47.441Z,15.77
2023-01-13T23:26:15.258Z,16.73
2023-01-13T23:28:42.815Z,14.40
2023-01-13T23:31:13.002Z,27.92
2023-01-13T23:33:43.826Z,18.92
2023-01-13T23:36:15.285Z,18.33
2023-01-13T23:38:43.345Z,16.40
2023-01-13T23:41:13.998Z,22.23
2023-01-13T23:43:41.497Z,17.08
2023-01-13T23:46:11.682Z,15.05
2023-01-13T23:48:39.456Z,21.65
2023-01-13T23:51:10.253Z,12.32
2023-01-13T23:53:40.559Z,12.68
2023-01-13T23:56:13.744Z,18.42
2023-01-13T23:58:42.099Z,14.45
